sensor_id;sensor_type;location;lat;lon;timestamp;temperature;humidity
18662;DHT22;61528;49.456;11.098;2022-07-29T16:31:25;23.40;97.60
18662;DHT22;61528;49.456;11.098;2022-07-29T16:33:53;23.50;97.90
18662;DHT22;61528;49.456;11.098;2022-07-29T16:36:19;23.30;99.30
18662;DHT22;61528;49.456;11.098;2022-07-29T16:38:45;23.10;99.90
18662;DHT22;61528;49.456;11.098;2022-07-29T16:41:11;23.00;99.90
18662;DHT22;61528;49.456;11.098;2022-07-29T16:43:38;22.90;99.90
18662;DHT22;61528;49.456;11.098;2022-07-29T16:46:06;22.80;99.90
18662;DHT22;61528;49.456;11.098;2022-07-29T16:48:33;22.80;99.90
18662;DHT22;61528;49.456;11.098;2022-07-29T16:50:58;22.70;99.90
18662;DHT22;61528;49.456;11.098;2022-07-29T16:53:24;22.60;99.90
18662;DHT22;61528;49.456;11.098;2022-07-29T16:55:50;22.50;99.90
18662;DHT22;61528;49.456;11.098;2022-07-29T16:58:16;22.40;99.90
18662;DHT22;61528;49.456;11.098;2022-07-29T17:00:41;22.30;99.90
18662;DHT22;61528;49.456;11.098;2022-07-29T17:03:07;22.30;99.90
18662;DHT22;61528;49.456;11.098;2022-07-29T17:05:33;22.30;99.90
18662;DHT22;61528;49.456;11.098;2022-07-29T17:07:59;22.00;99.90
18662;DHT22;61528;49.456;11.098;2022-07-29T17:10:24;21.90;99.90
18662;DHT22;61528;49.456;11.098;2022-07-29T17:12:51;21.80;99.90
18662;DHT22;61528;49.456;11.098;2022-07-29T17:15:18;21.80;99.90
18662;DHT22;61528;49.456;11.098;2022-07-29T17:17:45;22.00;99.90
18662;DHT22;61528;49.456;11.098;2022-07-29T17:20:12;21.90;99.90
18662;DHT22;61528;49.456;11.098;2022-07-29T17:22:38;21.70;99.90
18662;DHT22;61528;49.456;11.098;2022-07-29T17:25:05;21.70;99.90
18662;DHT22;61528;49.456;11.098;2022-07-29T17:27:31;21.50;99.90
18662;DHT22;61528;49.456;11.098;2022-07-29T17:29:57;21.50;99.90
18662;DHT22;61528;49.456;11.098;2022-07-29T17:32:23;21.40;99.90
18662;DHT22;61528;49.456;11.098;2022-07-29T17:34:49;21.40;99.90
18662;DHT22;61528;49.456;11.098;2022-07-29T17:37:15;21.30;99.90
18662;DHT22;61528;49.456;11.098;2022-07-29T17:39:41;21.20;99.90
18662;DHT22;61528;49.456;11.098;2022-07-29T17:42:09;21.30;99.90
18662;DHT22;61528;49.456;11.098;2022-07-29T17:44:35;21.10;99.90
18662;DHT22;61528;49.456;11.098;2022-07-29T17:47:01;21.20;99.90
18662;DHT22;61528;49.456;11.098;2022-07-29T17:49:27;21.20;99.90
18662;DHT22;61528;49.456;11.098;2022-07-29T17:51:53;21.20;99.90
18662;DHT22;61528;49.456;11.098;2022-07-29T17:54:19;21.00;99.90
18662;DHT22;61528;49.456;11.098;2022-07-29T17:56:44;20.80;99.90
18662;DHT22;61528;49.456;11.098;2022-07-29T17:59:10;20.70;99.90
18662;DHT22;61528;49.456;11.098;2022-07-29T18:01:37;20.60;99.90
18662;DHT22;61528;49.456;11.098;2022-07-29T18:04:07;20.60;99.90
18662;DHT22;61528;49.456;11.098;2022-07-29T18:06:37;20.80;99.90
18662;DHT22;61528;49.456;11.098;2022-07-29T18:09:04;20.90;99.90
18662;DHT22;61528;49.456;11.098;2022-07-29T18:11:31;21.10;99.90
18662;DHT22;61528;49.456;11.098;2022-07-29T18:13:56;21.00;99.90
18662;DHT22;61528;49.456;11.098;2022-07-29T18:16:22;20.90;99.90
18662;DHT22;61528;49.456;11.098;2022-07-29T18:18:50;20.70;99.90
18662;DHT22;61528;49.456;11.098;2022-07-29T18:21:15;20.70;99.90
